createdAt,value
2018-05-31T00:01:06.597Z,18.35
2018-05-31T00:05:59.964Z,18.57
2018-05-31T00:10:54.110Z,18.45
2018-05-31T00:15:47.504Z,18.69
2018-05-31T00:20:40.881Z,18.67
2018-05-31T00:25:34.229Z,18.67
2018-05-31T00:30:29.631Z,18.48
2018-05-31T00:40:45.239Z,18.52
2018-05-31T00:45:38.573Z,18.44
2018-05-31T00:50:31.922Z,18.39
2018-05-31T01:00:47.289Z,18.17
2018-05-31T01:05:40.661Z,18.16
2018-05-31T01:10:34.091Z,18.09
2018-05-31T01:15:28.296Z,18.15
2018-05-31T01:20:21.686Z,18.10
2018-05-31T01:25:15.049Z,17.93
2018-05-31T01:30:08.414Z,17.89
2018-05-31T01:35:02.674Z,17.78
2018-05-31T01:39:56.061Z,17.91
2018-05-31T01:44:49.371Z,18.03
2018-05-31T01:49:43.461Z,17.77
2018-05-31T01:54:36.802Z,17.67
2018-05-31T01:59:30.346Z,17.71
2018-05-31T02:04:23.728Z,17.67
2018-05-31T02:09:17.068Z,17.55
2018-05-31T02:14:11.143Z,17.75
2018-05-31T02:19:04.968Z,17.83
2018-05-31T02:23:58.309Z,17.53
2018-05-31T02:28:51.690Z,17.36
2018-05-31T02:33:45.017Z,17.63
2018-05-31T02:38:38.361Z,17.56
2018-05-31T02:43:31.712Z,17.18
2018-05-31T02:48:25.114Z,17.17
2018-05-31T02:53:18.430Z,17.24
2018-05-31T02:58:11.789Z,17.40
2018-05-31T03:03:05.222Z,17.19
2018-05-31T03:07:58.637Z,17.27
2018-05-31T03:12:52.531Z,17.19
2018-05-31T03:17:45.968Z,17.01
2018-05-31T03:22:39.330Z,17.07
2018-05-31T03:27:32.741Z,16.90
2018-05-31T03:32:26.083Z,17.03
2018-05-31T03:37:19.480Z,17.10
2018-05-31T03:42:12.819Z,16.95
2018-05-31T03:47:06.920Z,17.11
2018-05-31T03:52:00.304Z,17.01
2018-05-31T03:56:54.509Z,16.96
2018-05-31T04:01:47.916Z,17.23
2018-05-31T04:06:41.372Z,17.17
2018-05-31T04:11:34.737Z,17.41
2018-05-31T04:16:29.911Z,17.35
2018-05-31T04:21:23.293Z,17.42
2018-05-31T04:26:16.692Z,17.43
2018-05-31T04:31:10.082Z,17.38
2018-05-31T04:36:08.862Z,17.53
2018-05-31T04:41:02.275Z,17.93
2018-05-31T04:45:56.389Z,18.41
2018-05-31T04:50:50.460Z,18.61
2018-05-31T04:55:43.861Z,18.48
2018-05-31T05:00:41.050Z,18.82
2018-05-31T05:05:34.421Z,19.10
2018-05-31T05:10:28.872Z,19.74
2018-05-31T05:15:22.203Z,19.85
2018-05-31T05:20:18.854Z,19.38
2018-05-31T05:25:12.215Z,20.15
2018-05-31T05:30:06.361Z,19.93
2018-05-31T05:34:59.742Z,19.75
2018-05-31T05:39:53.147Z,19.76
2018-05-31T05:44:46.529Z,20.01
2018-05-31T05:49:39.959Z,19.89
2018-05-31T05:54:33.392Z,20.18
2018-05-31T05:59:27.073Z,20.35
2018-05-31T06:04:21.875Z,20.41
2018-05-31T06:09:15.241Z,20.65
2018-05-31T06:14:08.738Z,20.43
2018-05-31T06:19:02.337Z,20.46
2018-05-31T06:23:58.159Z,20.56
2018-05-31T06:28:53.994Z,20.89
2018-05-31T06:33:47.417Z,20.99
2018-05-31T06:38:41.795Z,20.87
2018-05-31T06:43:35.131Z,20.74
2018-05-31T06:48:28.664Z,20.65
2018-05-31T06:53:22.011Z,20.87
2018-05-31T06:58:16.086Z,20.85
2018-05-31T07:03:10.369Z,21.09
2018-05-31T07:08:03.861Z,21.28
2018-05-31T07:12:57.196Z,21.37
2018-05-31T07:17:50.600Z,21.53
2018-05-31T07:22:44.738Z,21.76
2018-05-31T07:27:40.145Z,22.08
2018-05-31T07:32:33.595Z,22.16
2018-05-31T07:37:27.097Z,21.90
2018-05-31T07:42:21.905Z,21.49
2018-05-31T07:47:16.942Z,21.40
2018-05-31T07:52:11.738Z,22.12
2018-05-31T07:57:06.997Z,22.28
2018-05-31T08:02:00.585Z,22.86
2018-05-31T08:12:07.522Z,24.00
2018-05-31T08:17:01.040Z,23.82
2018-05-31T08:21:54.410Z,23.84
2018-05-31T08:26:47.832Z,23.98
2018-05-31T08:31:42.479Z,24.67
2018-05-31T08:36:36.582Z,23.61
2018-05-31T08:41:29.954Z,24.10
2018-05-31T08:52:11.135Z,24.24
2018-05-31T08:57:05.737Z,24.52
2018-05-31T09:01:59.251Z,24.20
2018-05-31T09:06:52.700Z,24.40
2018-05-31T09:11:46.260Z,24.98
2018-05-31T09:16:39.861Z,24.61
2018-05-31T09:21:34.770Z,24.43
2018-05-31T09:26:28.245Z,24.62
2018-05-31T09:31:23.245Z,24.50
2018-05-31T09:41:33.595Z,24.71
2018-05-31T09:46:30.887Z,24.16
2018-05-31T09:51:24.543Z,24.19
2018-05-31T09:56:18.889Z,24.31
2018-05-31T10:01:12.433Z,24.49
2018-05-31T10:06:07.232Z,24.64
2018-05-31T10:11:01.154Z,25.03
2018-05-31T10:15:54.629Z,25.22
2018-05-31T10:20:48.798Z,24.88
2018-05-31T10:31:07.457Z,25.06
2018-05-31T10:36:00.943Z,25.53
2018-05-31T10:40:54.381Z,25.54
2018-05-31T10:45:47.964Z,25.55
2018-05-31T10:50:43.894Z,25.76
2018-05-31T10:55:37.204Z,25.76
2018-05-31T11:00:31.881Z,25.98
2018-05-31T11:05:25.224Z,26.28
2018-05-31T11:10:18.545Z,26.33
2018-05-31T11:20:33.124Z,26.32
2018-05-31T11:25:26.550Z,26.89
2018-05-31T11:30:20.646Z,27.10
2018-05-31T11:35:13.997Z,26.90
2018-05-31T11:40:08.360Z,27.11
2018-05-31T11:45:01.805Z,27.15
2018-05-31T11:49:56.340Z,27.32
2018-05-31T11:54:50.217Z,27.43
2018-05-31T11:59:45.216Z,27.86
2018-05-31T12:04:39.121Z,27.85
2018-05-31T12:09:33.472Z,27.46
2018-05-31T12:14:27.211Z,27.56
2018-05-31T12:19:20.675Z,27.69
2018-05-31T12:24:13.985Z,27.46
2018-05-31T12:29:07.374Z,27.36
2018-05-31T12:34:00.676Z,27.14
2018-05-31T12:38:53.972Z,27.88
2018-05-31T12:43:47.303Z,27.87
2018-05-31T12:48:40.603Z,27.43
2018-05-31T12:53:34.690Z,27.23
2018-05-31T12:58:28.747Z,27.58
2018-05-31T13:03:22.078Z,27.73
2018-05-31T13:08:17.250Z,28.06
2018-05-31T13:13:10.555Z,28.37
2018-05-31T13:18:06.880Z,28.57
2018-05-31T13:23:00.170Z,28.30
2018-05-31T13:27:53.531Z,27.82
2018-05-31T13:32:46.823Z,27.75
2018-05-31T13:37:40.137Z,27.18
2018-05-31T13:42:34.283Z,27.23
2018-05-31T13:47:27.608Z,27.59
2018-05-31T13:52:21.669Z,27.91
2018-05-31T13:57:15.015Z,27.61
2018-05-31T14:02:08.312Z,27.88
2018-05-31T14:07:01.633Z,28.12
2018-05-31T14:11:55.705Z,28.03
2018-05-31T14:16:49.003Z,28.19
2018-05-31T14:21:42.315Z,28.18
2018-05-31T14:26:35.611Z,28.04
2018-05-31T14:31:28.914Z,28.32
2018-05-31T14:36:22.214Z,28.17
2018-05-31T14:41:16.319Z,28.07
2018-05-31T14:46:09.602Z,28.35
2018-05-31T14:51:02.908Z,28.44
2018-05-31T14:55:56.215Z,28.14
2018-05-31T15:00:49.589Z,27.36
2018-05-31T15:05:42.907Z,27.04
2018-05-31T15:10:36.195Z,26.97
2018-05-31T15:15:29.514Z,26.86
2018-05-31T15:20:22.823Z,27.00
2018-05-31T15:25:16.967Z,27.03
2018-05-31T15:30:10.294Z,26.96
2018-05-31T15:35:04.391Z,26.98
2018-05-31T15:39:58.451Z,26.96
2018-05-31T15:44:51.801Z,26.95
2018-05-31T15:49:45.171Z,27.10
2018-05-31T15:54:38.491Z,27.25
2018-05-31T15:59:31.816Z,27.32
2018-05-31T16:04:25.104Z,27.10
2018-05-31T16:09:19.174Z,26.65
2018-05-31T16:14:13.226Z,26.05
2018-05-31T16:19:06.519Z,25.77
2018-05-31T16:24:01.435Z,25.73
2018-05-31T16:28:54.749Z,25.61
2018-05-31T16:33:48.063Z,25.48
2018-05-31T16:38:41.359Z,25.50
2018-05-31T16:43:34.657Z,25.48
2018-05-31T16:48:28.748Z,25.43
2018-05-31T16:53:22.837Z,25.22
2018-05-31T16:58:16.193Z,25.01
2018-05-31T17:03:09.576Z,24.86
2018-05-31T17:08:02.950Z,24.85
2018-05-31T17:12:56.263Z,24.68
2018-05-31T17:17:50.337Z,24.60
2018-05-31T17:22:43.655Z,24.62
2018-05-31T17:27:36.974Z,24.62
2018-05-31T17:32:30.455Z,24.58
2018-05-31T17:37:23.794Z,24.50
2018-05-31T17:42:30.794Z,24.33
2018-05-31T17:47:24.885Z,24.05
2018-05-31T17:52:18.284Z,23.96
2018-05-31T17:57:11.614Z,23.97
2018-05-31T18:02:04.925Z,23.97
2018-05-31T18:06:58.257Z,23.78
2018-05-31T18:11:51.572Z,23.75
2018-05-31T18:16:44.859Z,23.87
2018-05-31T18:21:38.162Z,23.95
2018-05-31T18:26:31.469Z,23.55
2018-05-31T18:31:24.783Z,23.56
2018-05-31T18:36:18.082Z,23.46
2018-05-31T18:41:12.925Z,23.11
2018-05-31T18:46:06.236Z,23.14
2018-05-31T18:51:00.437Z,23.33
2018-05-31T18:55:53.732Z,23.11
2018-05-31T19:00:47.876Z,22.95
2018-05-31T19:05:45.367Z,22.96
2018-05-31T19:10:39.565Z,23.27
2018-05-31T19:15:32.914Z,22.96
2018-05-31T19:20:27.126Z,23.07
2018-05-31T19:25:20.452Z,23.05
2018-05-31T19:30:19.294Z,22.94
2018-05-31T19:35:18.010Z,22.83
2018-05-31T19:40:11.339Z,22.43
2018-05-31T19:45:04.645Z,22.00
2018-05-31T19:49:57.934Z,21.75
2018-05-31T19:54:51.998Z,21.56
2018-05-31T19:59:50.823Z,21.06
2018-05-31T20:04:44.125Z,21.14
2018-05-31T20:09:37.432Z,21.10
2018-05-31T20:14:31.930Z,20.88
2018-05-31T20:19:26.075Z,20.62
2018-05-31T20:24:20.422Z,20.72
2018-05-31T20:29:14.607Z,20.59
2018-05-31T20:34:07.928Z,20.60
2018-05-31T20:39:01.225Z,20.78
2018-05-31T20:43:54.514Z,20.69
2018-05-31T20:48:47.882Z,19.94
2018-05-31T20:53:41.210Z,18.92
2018-05-31T20:58:35.333Z,18.38
2018-05-31T21:03:28.640Z,18.42
2018-05-31T21:08:21.959Z,18.33
2018-05-31T21:13:15.294Z,18.09
2018-05-31T21:18:08.588Z,18.05
2018-05-31T21:23:01.912Z,17.76
2018-05-31T21:27:56.007Z,17.54
2018-05-31T21:32:50.186Z,17.43
2018-05-31T21:37:44.326Z,17.28
2018-05-31T21:42:37.761Z,17.29
2018-05-31T21:47:31.122Z,17.36
2018-05-31T21:52:24.576Z,17.50
2018-05-31T21:57:17.936Z,17.21
2018-05-31T22:02:11.417Z,16.96
2018-05-31T22:07:04.758Z,17.06
2018-05-31T22:11:58.157Z,17.37
2018-05-31T22:16:52.279Z,17.48
2018-05-31T22:21:45.594Z,17.40
2018-05-31T22:26:39.787Z,17.17
2018-05-31T22:31:33.135Z,17.38
2018-05-31T22:36:26.488Z,17.39
2018-05-31T22:41:19.791Z,17.09
2018-05-31T22:46:13.110Z,17.08
2018-05-31T22:51:06.429Z,17.09
2018-05-31T22:55:59.752Z,17.26
2018-05-31T23:00:53.095Z,17.45
2018-05-31T23:05:46.395Z,17.18
2018-05-31T23:10:39.706Z,17.36
2018-05-31T23:15:32.992Z,17.36
2018-05-31T23:20:27.048Z,17.34
2018-05-31T23:25:20.355Z,17.21
2018-05-31T23:30:14.462Z,17.26
2018-05-31T23:35:07.754Z,17.24
2018-05-31T23:40:01.035Z,17.46
2018-05-31T23:44:54.330Z,17.53
2018-05-31T23:49:47.625Z,17.49
2018-05-31T23:54:40.954Z,17.47
2018-05-31T23:59:34.990Z,17.34
